Decoded Metar for LFMT (MONTPELLIER in FRANCE) (IATA:MPL) | Meteo·Mobile Aviation Weather
aviador You're here:

LFMT Decoded Metar

MONTPELLIER in FRANCE
Report Time2018-10-18 16:00:00
UTC Time2018-10-18 16:28:58
Flight Rules vfr VFR
Wind010° at 05 kt
W.Decomp.*RWY 30: 1.7 kt HW 4.7 kt RCW
W.Rank010° ranks 1
Current wind is below 010° avg. (7.2)
Visibility9999 m
Phenomena:N/A
Clouds:N/A
Expected CloudBase > 3,200 ft AGL from Temp-Dew spread
CeilingNone
Temp23°C (ISA +8)
Dew Point15°C (61% RH)
AAT22.8°C
QNH1013 hPa
Density Alt1,181 ft
Elevation20 ft
Report Wrong Elevation
Raw Report
METAR LFMT 181600Z AUTO 01005KT CAVOK 23/15 Q1013 NOSIG=

Extra information for LFMT:More info

Metar Taf Metar & Taf Last 4 Metars F.Rules Stats Wind Profile Meteogram Temp Stats Airport Information Weather charts Add Link Nearby VenuesMetar ALERT Operation Metar Decoded Social comments